Time;durP1;ratioP1;P1;durP2;ratioP2;P2;SDS_P1;SDS_P2;PMS_P1;PMS_P2;Temp;Humidity;BMP_temperature;BMP_pressure;BME280_temperature;BME280_humidity;BME280_pressure;Samples;Min_cycle;Max_cycle;Signal;HPM_P1;HPM_P2
2021/06/28 00:01:49;;;;;;;12.30;8.68;;;16.00;97.60;;;;;;5077137;28;20171;-79
2021/06/28 00:04:15;;;;;;;10.77;8.48;;;16.00;97.70;;;;;;5080215;28;20039;-81
2021/06/28 00:06:41;;;;;;;11.25;9.50;;;16.00;97.70;;;;;;5070936;28;20046;-81
2021/06/28 00:09:07;;;;;;;11.38;9.02;;;16.00;97.80;;;;;;5078500;28;20134;-82
2021/06/28 00:11:33;;;;;;;11.10;9.27;;;16.00;97.80;;;;;;5059967;28;20799;-81
2021/06/28 00:13:59;;;;;;;10.82;8.82;;;16.00;97.80;;;;;;5077510;28;20063;-82
2021/06/28 00:16:25;;;;;;;14.35;9.80;;;15.90;97.90;;;;;;5079974;28;21344;-82
2021/06/28 00:18:52;;;;;;;12.65;9.77;;;15.90;97.90;;;;;;5084495;28;20047;-81
2021/06/28 00:21:19;;;;;;;12.43;10.13;;;15.90;98.00;;;;;;5083589;28;20561;-81
2021/06/28 00:23:45;;;;;;;12.73;9.77;;;15.90;98.10;;;;;;5084897;28;20499;-81
2021/06/28 00:26:11;;;;;;;11.95;9.82;;;15.90;98.10;;;;;;5065584;28;20153;-81
2021/06/28 00:28:37;;;;;;;13.25;9.75;;;15.90;98.20;;;;;;5082365;28;20695;-82
2021/06/28 00:31:03;;;;;;;13.27;9.07;;;15.90;98.30;;;;;;5084585;28;20562;-80
2021/06/28 00:33:30;;;;;;;15.75;10.93;;;15.90;98.40;;;;;;5084665;28;20036;-82
2021/06/28 00:35:56;;;;;;;11.98;9.90;;;15.80;98.50;;;;;;5081128;28;20042;-82
2021/06/28 00:38:22;;;;;;;12.63;9.73;;;15.80;98.40;;;;;;5081616;28;20511;-81
2021/06/28 00:40:49;;;;;;;15.30;9.75;;;15.80;98.50;;;;;;5059999;28;20047;-78
2021/06/28 00:43:16;;;;;;;12.40;10.68;;;15.90;98.70;;;;;;5082276;28;20036;-81
2021/06/28 00:45:43;;;;;;;13.82;9.85;;;15.80;98.70;;;;;;5081791;28;20185;-80
2021/06/28 00:48:15;;;;;;;14.55;10.73;;;15.80;98.70;;;;;;5062562;28;20101;-81
2021/06/28 00:50:51;;;;;;;15.15;9.93;;;15.80;98.80;;;;;;5061331;28;20475;-81
2021/06/28 00:53:19;;;;;;;15.32;10.38;;;15.70;98.90;;;;;;5094125;28;20043;-79
2021/06/28 00:55:45;;;;;;;15.27;10.35;;;15.70;98.90;;;;;;5081311;28;20432;-79
2021/06/28 00:58:12;;;;;;;12.85;9.70;;;15.70;98.90;;;;;;5064095;28;20036;-80
2021/06/28 01:00:41;;;;;;;13.85;9.93;;;15.70;98.90;;;;;;5095824;28;20086;-76
2021/06/28 01:03:07;;;;;;;14.15;10.07;;;15.60;99.10;;;;;;5078966;28;20074;-75
2021/06/28 01:05:36;;;;;;;16.13;9.85;;;15.60;99.00;;;;;;5080337;28;20055;-75
2021/06/28 01:08:06;;;;;;;15.43;10.77;;;15.50;99.10;;;;;;5080314;28;20068;-81
2021/06/28 01:10:33;;;;;;;14.13;10.23;;;15.50;99.20;;;;;;5058313;28;20972;-80
2021/06/28 01:12:59;;;;;;;13.77;11.05;;;15.50;99.20;;;;;;5076502;28;20390;-82
2021/06/28 01:15:25;;;;;;;16.10;11.35;;;15.40;99.30;;;;;;5078692;28;20044;-81
2021/06/28 01:17:52;;;;;;;14.70;11.38;;;15.40;99.40;;;;;;5081047;28;20036;-80
2021/06/28 01:20:19;;;;;;;19.42;12.18;;;15.40;99.40;;;;;;5080569;28;20043;-80
2021/06/28 01:22:54;;;;;;;18.08;11.98;;;15.40;99.50;;;;;;5081737;28;20036;-81
2021/06/28 01:25:26;;;;;;;16.60;12.60;;;15.30;99.60;;;;;;5079532;28;20046;-81
2021/06/28 01:27:52;;;;;;;16.67;12.38;;;15.30;99.70;;;;;;5084056;28;20791;-81
2021/06/28 01:30:21;;;;;;;17.80;12.30;;;15.30;99.80;;;;;;5083383;28;20804;-79
2021/06/28 01:32:48;;;;;;;15.35;11.98;;;15.30;99.90;;;;;;5084404;28;20328;-84
2021/06/28 01:35:15;;;;;;;14.38;11.25;;;15.30;99.90;;;;;;5084161;28;20871;-81
2021/06/28 01:37:42;;;;;;;15.75;12.43;;;15.30;99.90;;;;;;5085679;28;20039;-80
2021/06/28 01:40:10;;;;;;;17.23;11.90;;;15.30;99.90;;;;;;5081048;28;20043;-81
2021/06/28 01:42:37;;;;;;;16.33;11.98;;;15.30;99.90;;;;;;5082941;28;20080;-80
2021/06/28 01:45:09;;;;;;;16.00;12.82;;;15.30;99.90;;;;;;5081830;28;20051;-80
2021/06/28 01:47:42;;;;;;;14.80;11.57;;;15.30;99.90;;;;;;5086276;28;20107;-81
2021/06/28 01:50:11;;;;;;;15.68;12.18;;;15.30;99.90;;;;;;5082900;28;20036;-80
2021/06/28 01:52:39;;;;;;;18.73;12.43;;;15.30;99.90;;;;;;5060565;28;20039;-80
2021/06/28 01:55:08;;;;;;;16.33;11.32;;;15.40;99.90;;;;;;5061132;28;22549;-80
2021/06/28 01:57:35;;;;;;;20.43;12.47;;;15.40;99.90;;;;;;5084103;28;20040;-81
2021/06/28 02:00:04;;;;;;;15.20;12.35;;;15.30;99.90;;;;;;5069244;28;20318;-80
2021/06/28 02:02:29;;;;;;;15.15;11.15;;;15.40;99.90;;;;;;5079090;28;20044;-81
2021/06/28 02:04:55;;;;;;;16.02;12.23;;;15.40;99.90;;;;;;5084350;28;20399;-81
2021/06/28 02:07:24;;;;;;;15.63;10.93;;;15.40;99.90;;;;;;5064157;28;20122;-80
2021/06/28 02:09:50;;;;;;;15.60;11.80;;;15.40;99.90;;;;;;5069823;28;20542;-79
2021/06/28 02:12:16;;;;;;;16.63;12.40;;;15.40;99.90;;;;;;5085128;28;20121;-80
2021/06/28 02:14:42;;;;;;;17.15;11.32;;;15.50;99.90;;;;;;5070030;28;20067;-82
2021/06/28 02:17:08;;;;;;;15.40;11.48;;;15.50;99.90;;;;;;5081574;28;20041;-80
2021/06/28 02:19:34;;;;;;;13.95;10.77;;;15.40;99.90;;;;;;5088297;28;20461;-79
2021/06/28 02:22:00;;;;;;;16.42;11.52;;;15.50;99.90;;;;;;5083755;28;20043;-79
2021/06/28 02:24:26;;;;;;;15.25;11.52;;;15.40;99.90;;;;;;5088100;28;20032;-81
2021/06/28 02:26:52;;;;;;;18.00;11.77;;;15.50;99.90;;;;;;5085219;28;20041;-81
2021/06/28 02:29:18;;;;;;;17.55;12.20;;;15.50;99.90;;;;;;5071588;28;20251;-81
2021/06/28 02:31:44;;;;;;;16.83;11.90;;;15.50;99.90;;;;;;5103130;28;20036;-81
2021/06/28 02:34:11;;;;;;;15.52;11.77;;;15.50;99.90;;;;;;5087866;28;20589;-81
2021/06/28 02:36:37;;;;;;;16.13;11.48;;;15.50;99.90;;;;;;5088000;28;20451;-80
2021/06/28 02:39:05;;;;;;;17.40;11.68;;;15.50;99.90;;;;;;5086713;28;20040;-81
2021/06/28 02:41:31;;;;;;;18.45;12.57;;;15.50;99.90;;;;;;5087150;28;20040;-80
2021/06/28 02:44:00;;;;;;;16.42;11.50;;;15.50;99.90;;;;;;5057679;28;20383;-81
2021/06/28 02:46:26;;;;;;;15.68;11.48;;;15.50;99.90;;;;;;5085950;28;20410;-82
2021/06/28 02:48:53;;;;;;;17.90;12.70;;;15.50;99.90;;;;;;5032433;28;20055;-79
2021/06/28 02:51:19;;;;;;;16.40;12.27;;;15.60;99.90;;;;;;5067668;28;20040;-81
2021/06/28 02:53:46;;;;;;;17.27;12.25;;;15.60;99.90;;;;;;5085709;28;20411;-80
2021/06/28 02:56:12;;;;;;;17.65;12.48;;;15.60;99.90;;;;;;5083881;28;20052;-81
2021/06/28 02:58:59;;;;;;;20.23;12.65;;;15.60;99.90;;;;;;5084943;28;20035;-82
2021/06/28 03:01:27;;;;;;;17.35;12.80;;;15.60;99.90;;;;;;5064479;28;20140;-80
2021/06/28 03:03:54;;;;;;;20.13;12.73;;;15.60;99.90;;;;;;5082575;28;20036;-81
2021/06/28 03:06:20;;;;;;;17.83;12.68;;;15.60;99.90;;;;;;5070233;28;20123;-81
2021/06/28 03:08:47;;;;;;;20.45;13.10;;;15.60;99.90;;;;;;5084035;28;20040;-82
2021/06/28 03:11:14;;;;;;;15.68;12.00;;;15.60;99.90;;;;;;5063312;28;20480;-81
2021/06/28 03:13:41;;;;;;;19.42;12.57;;;15.60;99.90;;;;;;5082592;28;20075;-80
2021/06/28 03:16:08;;;;;;;20.27;12.05;;;15.60;99.90;;;;;;5073390;28;20032;-80
2021/06/28 03:18:35;;;;;;;21.15;13.48;;;15.60;99.90;;;;;;5067909;28;21259;-81
2021/06/28 03:21:03;;;;;;;18.20;12.55;;;15.60;99.90;;;;;;5062109;28;20120;-80
2021/06/28 03:23:28;;;;;;;17.77;13.05;;;15.60;99.90;;;;;;5082984;28;20040;-82
2021/06/28 03:25:55;;;;;;;18.67;14.55;;;15.60;99.90;;;;;;5085678;28;20047;-80
2021/06/28 03:28:21;;;;;;;15.48;12.57;;;15.60;99.90;;;;;;5069777;28;20093;-81
2021/06/28 03:30:47;;;;;;;19.67;13.57;;;15.60;99.90;;;;;;5084670;28;20032;-80
2021/06/28 03:33:13;;;;;;;18.05;12.85;;;15.60;99.90;;;;;;5085194;28;20120;-80
2021/06/28 03:35:39;;;;;;;18.80;13.82;;;15.60;99.90;;;;;;5081678;28;20104;-81
2021/06/28 03:38:05;;;;;;;21.58;14.18;;;15.60;99.90;;;;;;5086893;28;20051;-80
2021/06/28 03:40:32;;;;;;;20.15;14.02;;;15.60;99.90;;;;;;5078119;28;20077;-80
2021/06/28 03:43:04;;;;;;;18.13;14.15;;;15.70;99.90;;;;;;5068245;28;20782;-80
2021/06/28 03:45:30;;;;;;;19.02;14.05;;;15.70;99.90;;;;;;5083403;28;20485;-80
2021/06/28 03:47:56;;;;;;;18.85;14.05;;;15.70;99.90;;;;;;5083612;28;20044;-82
2021/06/28 03:50:24;;;;;;;19.75;14.07;;;15.70;99.90;;;;;;5065091;28;20052;-80
2021/06/28 03:52:50;;;;;;;17.05;13.00;;;15.70;99.90;;;;;;5085200;28;20139;-79
2021/06/28 03:55:16;;;;;;;19.35;12.88;;;15.70;99.90;;;;;;5085785;28;20119;-80
2021/06/28 03:57:42;;;;;;;18.38;12.57;;;15.60;99.90;;;;;;5083184;28;20048;-80
2021/06/28 04:00:14;;;;;;;16.60;12.38;;;15.70;99.90;;;;;;5085421;28;20036;-79
2021/06/28 04:02:42;;;;;;;17.15;12.50;;;15.70;99.90;;;;;;5079536;28;20048;-81
2021/06/28 04:05:10;;;;;;;17.85;11.63;;;15.70;99.90;;;;;;5082581;28;20044;-80
2021/06/28 04:07:36;;;;;;;14.68;10.93;;;15.70;99.90;;;;;;5082241;28;20028;-80
2021/06/28 04:10:04;;;;;;;15.25;11.82;;;15.80;99.90;;;;;;5096378;28;20079;-80
2021/06/28 04:12:30;;;;;;;13.68;10.80;;;15.80;99.90;;;;;;5084381;28;20086;-79
2021/06/28 04:14:56;;;;;;;17.80;12.25;;;15.80;99.90;;;;;;5081603;28;20469;-80
2021/06/28 04:17:22;;;;;;;17.05;12.68;;;15.90;99.90;;;;;;5085970;28;20066;-79
2021/06/28 04:19:48;;;;;;;14.30;11.25;;;15.90;99.90;;;;;;5064937;28;20390;-81
2021/06/28 04:22:14;;;;;;;14.65;11.43;;;15.90;99.90;;;;;;5083456;28;20036;-80
2021/06/28 04:24:40;;;;;;;16.33;11.02;;;15.90;99.90;;;;;;5083989;28;20964;-80
2021/06/28 04:27:06;;;;;;;14.45;11.10;;;15.90;99.90;;;;;;5085938;28;20028;-80
2021/06/28 04:29:32;;;;;;;17.48;12.60;;;15.90;99.90;;;;;;5054456;28;20046;-81
2021/06/28 04:31:58;;;;;;;14.50;11.27;;;15.80;99.90;;;;;;5085208;28;20560;-80
2021/06/28 04:34:24;;;;;;;17.23;12.30;;;15.80;99.90;;;;;;5065122;28;20040;-81
2021/06/28 04:36:50;;;;;;;18.05;12.35;;;15.80;99.90;;;;;;5082892;28;20040;-79
2021/06/28 04:39:16;;;;;;;16.50;12.35;;;15.80;99.90;;;;;;5082814;28;20040;-80
2021/06/28 04:41:42;;;;;;;17.00;11.43;;;15.80;99.90;;;;;;5084666;28;20662;-80
2021/06/28 04:44:08;;;;;;;17.70;11.85;;;15.80;99.90;;;;;;5084782;28;20051;-79
2021/06/28 04:46:34;;;;;;;18.33;11.52;;;15.80;99.90;;;;;;5062823;28;20501;-80
2021/06/28 04:49:01;;;;;;;17.58;12.55;;;15.80;99.90;;;;;;5080421;28;20032;-79
2021/06/28 04:51:32;;;;;;;18.45;11.43;;;15.80;99.90;;;;;;5063456;28;20032;-80
2021/06/28 04:53:59;;;;;;;15.77;12.18;;;15.80;99.90;;;;;;5062954;28;20067;-75
2021/06/28 04:56:25;;;;;;;17.25;12.45;;;15.80;99.90;;;;;;5063268;28;20040;-74
2021/06/28 04:58:51;;;;;;;18.10;12.43;;;15.80;99.90;;;;;;5046735;28;20068;-74
2021/06/28 05:01:17;;;;;;;13.82;11.40;;;15.90;99.90;;;;;;5081524;28;20504;-74
2021/06/28 05:03:43;;;;;;;16.38;11.63;;;15.80;99.90;;;;;;5082147;28;20040;-74
2021/06/28 05:06:09;;;;;;;15.82;11.88;;;15.80;99.90;;;;;;5083496;28;20319;-75
2021/06/28 05:08:35;;;;;;;18.48;12.80;;;15.90;99.90;;;;;;5081597;28;20036;-74
2021/06/28 05:11:01;;;;;;;15.75;12.05;;;15.90;99.90;;;;;;5085237;28;20713;-74
2021/06/28 05:13:27;;;;;;;16.75;12.23;;;15.90;99.90;;;;;;5050391;28;20058;-74
2021/06/28 05:15:55;;;;;;;16.42;11.98;;;15.90;99.90;;;;;;5080782;28;20044;-74
2021/06/28 05:18:21;;;;;;;14.65;11.65;;;15.90;99.90;;;;;;5083229;28;20455;-75
2021/06/28 05:20:47;;;;;;;16.85;11.50;;;15.90;99.90;;;;;;5067590;28;20047;-76
2021/06/28 05:23:13;;;;;;;13.30;10.52;;;15.90;99.90;;;;;;5084917;28;20039;-76
2021/06/28 05:25:39;;;;;;;15.45;11.93;;;15.90;99.90;;;;;;5086462;28;20036;-75
2021/06/28 05:28:05;;;;;;;17.10;12.27;;;16.00;99.90;;;;;;5082823;28;20045;-75
2021/06/28 05:30:31;;;;;;;15.60;12.10;;;16.00;99.90;;;;;;5046121;28;20461;-76
2021/06/28 05:32:57;;;;;;;14.90;11.25;;;16.00;99.90;;;;;;5065628;28;20032;-75
2021/06/28 05:35:23;;;;;;;13.10;11.13;;;16.00;99.90;;;;;;5068632;28;20036;-76
2021/06/28 05:37:49;;;;;;;17.65;12.23;;;16.10;99.90;;;;;;5063618;28;20036;-75
2021/06/28 05:40:15;;;;;;;13.38;11.45;;;16.10;99.90;;;;;;5067063;28;20163;-74
2021/06/28 05:42:43;;;;;;;18.65;12.07;;;16.20;99.90;;;;;;5061755;28;20047;-80
2021/06/28 05:45:10;;;;;;;16.55;12.13;;;16.20;99.90;;;;;;5080592;28;20051;-78
2021/06/28 05:47:36;;;;;;;13.50;10.43;;;16.30;99.90;;;;;;5067428;28;20244;-80
2021/06/28 05:50:04;;;;;;;12.25;10.38;;;16.30;99.90;;;;;;5082895;28;20507;-79
2021/06/28 05:52:30;;;;;;;16.00;10.60;;;16.30;99.90;;;;;;5074704;28;20039;-79
2021/06/28 05:54:57;;;;;;;14.10;11.57;;;16.40;99.90;;;;;;5083550;28;20036;-80
2021/06/28 05:57:26;;;;;;;14.65;11.88;;;16.40;99.90;;;;;;5084973;28;20090;-80
2021/06/28 06:00:01;;;;;;;14.30;11.75;;;16.40;99.90;;;;;;5085791;28;20093;-80
2021/06/28 06:02:27;;;;;;;17.00;11.13;;;16.50;99.90;;;;;;5086686;28;20507;-79
2021/06/28 06:04:53;;;;;;;14.95;10.70;;;16.50;99.90;;;;;;5065226;28;20044;-80
2021/06/28 06:07:19;;;;;;;14.82;11.48;;;16.50;99.90;;;;;;5085408;28;20067;-80
2021/06/28 06:09:45;;;;;;;13.32;11.38;;;16.60;99.90;;;;;;5085753;28;20036;-79
2021/06/28 06:12:11;;;;;;;16.10;12.25;;;16.70;99.70;;;;;;5067544;28;20048;-80
2021/06/28 06:14:37;;;;;;;13.07;10.85;;;16.80;99.60;;;;;;5082970;28;20119;-80
2021/06/28 06:17:03;;;;;;;14.25;11.60;;;16.80;99.60;;;;;;5065583;28;20088;-80
2021/06/28 06:19:29;;;;;;;18.05;11.65;;;16.90;99.40;;;;;;5083176;28;20060;-80
2021/06/28 06:21:55;;;;;;;14.10;10.70;;;17.00;99.20;;;;;;5064571;28;20036;-80
2021/06/28 06:24:26;;;;;;;14.52;11.45;;;17.10;99.30;;;;;;5084880;28;20036;-80
2021/06/28 06:26:56;;;;;;;15.13;11.38;;;17.10;99.20;;;;;;5082091;28;20049;-80
2021/06/28 06:29:26;;;;;;;13.07;11.43;;;17.20;99.00;;;;;;5081997;28;20032;-79
2021/06/28 06:31:52;;;;;;;13.73;11.20;;;17.30;98.90;;;;;;5080176;28;20043;-80
2021/06/28 06:34:17;;;;;;;23.50;12.38;;;17.40;98.70;;;;;;5079025;28;20572;-80
2021/06/28 06:36:43;;;;;;;28.27;15.10;;;17.60;98.70;;;;;;5084197;28;20665;-81
2021/06/28 06:39:09;;;;;;;13.23;11.73;;;17.70;98.30;;;;;;5080759;28;20383;-80
2021/06/28 06:41:36;;;;;;;15.60;11.60;;;17.90;97.90;;;;;;5068020;28;20040;-78
2021/06/28 06:44:02;;;;;;;14.15;12.15;;;17.90;97.50;;;;;;5084584;28;20574;-79
2021/06/28 06:46:28;;;;;;;14.50;12.23;;;17.90;97.20;;;;;;5080764;28;20441;-80
2021/06/28 06:48:54;;;;;;;13.70;12.30;;;18.00;97.60;;;;;;5082819;28;20043;-78
2021/06/28 06:51:20;;;;;;;13.13;11.65;;;18.10;97.60;;;;;;5080849;28;20510;-80
2021/06/28 06:53:47;;;;;;;14.75;12.15;;;18.20;97.40;;;;;;5060484;28;20041;-79
2021/06/28 06:56:13;;;;;;;12.95;11.60;;;18.30;97.40;;;;;;5066138;28;20036;-75
2021/06/28 06:58:39;;;;;;;13.05;11.15;;;18.40;97.40;;;;;;5080882;28;20032;-76
2021/06/28 07:01:25;;;;;;;15.15;11.32;;;18.60;97.40;;;;;;5054706;28;20678;-75
2021/06/28 07:03:51;;;;;;;13.98;10.45;;;18.70;97.20;;;;;;5075603;28;20435;-76
2021/06/28 07:06:17;;;;;;;12.80;11.45;;;18.80;97.10;;;;;;5080693;28;20478;-75
2021/06/28 07:08:43;;;;;;;12.70;11.25;;;18.90;96.90;;;;;;5081843;28;20066;-76
2021/06/28 07:11:12;;;;;;;15.50;11.82;;;19.10;96.80;;;;;;5082629;28;20040;-76
2021/06/28 07:13:39;;;;;;;12.93;10.82;;;19.20;96.60;;;;;;5079304;28;20035;-76
2021/06/28 07:16:06;;;;;;;12.07;10.35;;;19.30;96.30;;;;;;5076884;28;20036;-76
2021/06/28 07:18:33;;;;;;;12.18;9.70;;;19.50;96.40;;;;;;5081758;28;20246;-77
2021/06/28 07:20:59;;;;;;;11.23;10.00;;;19.60;96.10;;;;;;5082013;28;20043;-74
2021/06/28 07:23:31;;;;;;;12.77;10.73;;;19.70;95.90;;;;;;5062942;28;20116;-76
2021/06/28 07:25:58;;;;;;;11.40;9.60;;;19.80;95.30;;;;;;5077367;28;20055;-75
2021/06/28 07:28:24;;;;;;;11.35;9.63;;;19.90;95.10;;;;;;5066459;28;20036;-75
2021/06/28 07:30:49;;;;;;;11.40;10.15;;;20.00;95.20;;;;;;5077899;28;20510;-76
2021/06/28 07:33:16;;;;;;;11.52;10.23;;;20.20;95.00;;;;;;5078955;28;20236;-75
2021/06/28 07:35:42;;;;;;;11.65;9.95;;;20.30;94.90;;;;;;5065849;28;20044;-75
2021/06/28 07:38:08;;;;;;;11.20;9.90;;;20.40;94.60;;;;;;5064592;28;20040;-76
2021/06/28 07:40:34;;;;;;;11.25;10.05;;;20.60;94.70;;;;;;5083327;28;20466;-76
2021/06/28 07:43:00;;;;;;;12.07;10.38;;;20.70;94.50;;;;;;5073749;28;20051;-75
2021/06/28 07:45:26;;;;;;;12.40;9.25;;;20.90;94.10;;;;;;5076746;28;20040;-77
2021/06/28 07:47:53;;;;;;;12.68;9.85;;;21.00;93.70;;;;;;5085156;28;20070;-76
2021/06/28 07:50:19;;;;;;;12.18;9.20;;;21.00;93.70;;;;;;5084635;28;20118;-80
2021/06/28 07:52:45;;;;;;;10.90;8.95;;;21.20;93.50;;;;;;5084503;28;20056;-80
2021/06/28 07:55:13;;;;;;;12.27;9.60;;;21.30;93.40;;;;;;5080803;28;20040;-79
2021/06/28 07:57:40;;;;;;;11.05;9.95;;;21.40;92.90;;;;;;5068916;28;20043;-80
2021/06/28 08:00:08;;;;;;;10.30;9.30;;;21.40;92.30;;;;;;5080231;28;20036;-77
2021/06/28 08:02:35;;;;;;;;;;;21.40;92.40;;;;;;5086919;28;20051;-78
2021/06/28 08:05:02;;;;;;;10.27;8.77;;;21.50;92.80;;;;;;5081910;28;20298;-80
2021/06/28 08:07:29;;;;;;;11.27;9.15;;;21.60;92.80;;;;;;5082319;28;20032;-79
2021/06/28 08:09:55;;;;;;;12.18;10.02;;;21.80;92.30;;;;;;5077374;28;20046;-79
2021/06/28 08:12:21;;;;;;;11.35;8.70;;;21.90;91.90;;;;;;5087457;28;20123;-79
2021/06/28 08:14:47;;;;;;;11.80;9.05;;;21.90;91.90;;;;;;5066466;28;20161;-80
2021/06/28 08:17:13;;;;;;;11.23;9.00;;;22.00;91.80;;;;;;5084888;28;20043;-81
2021/06/28 08:19:42;;;;;;;10.20;8.45;;;22.10;91.70;;;;;;5083191;28;20044;-81
2021/06/28 08:22:09;;;;;;;9.13;8.23;;;22.20;91.70;;;;;;5051213;28;20071;-79
2021/06/28 08:24:35;;;;;;;9.95;8.07;;;22.30;91.60;;;;;;5079057;28;20093;-81
2021/06/28 08:27:02;;;;;;;9.85;8.73;;;22.50;91.70;;;;;;5063793;28;20036;-79
2021/06/28 08:29:28;;;;;;;12.02;9.40;;;22.60;90.80;;;;;;5079970;28;20643;-80
2021/06/28 08:31:54;;;;;;;10.60;9.40;;;22.60;91.00;;;;;;5075926;28;20142;-81
2021/06/28 08:34:20;;;;;;;10.90;9.25;;;22.70;90.90;;;;;;5080501;28;20099;-79
2021/06/28 08:36:46;;;;;;;10.80;9.70;;;22.80;90.70;;;;;;5064365;28;20483;-79
2021/06/28 08:39:14;;;;;;;11.02;9.32;;;22.80;90.20;;;;;;5082119;28;20560;-81
2021/06/28 08:41:45;;;;;;;10.02;7.82;;;22.80;90.30;;;;;;5100182;28;20044;-81
2021/06/28 08:44:12;;;;;;;10.50;8.38;;;22.80;90.40;;;;;;5082131;28;20204;-80
2021/06/28 08:46:39;;;;;;;10.27;9.27;;;22.90;90.10;;;;;;5081558;28;20036;-79
2021/06/28 08:49:06;;;;;;;9.40;8.27;;;23.00;90.20;;;;;;5064101;28;20036;-79
2021/06/28 08:51:32;;;;;;;9.02;7.75;;;23.10;90.30;;;;;;5079212;28;20055;-80
2021/06/28 08:53:58;;;;;;;9.52;7.97;;;23.20;90.50;;;;;;5076023;28;20052;-77
2021/06/28 08:56:25;;;;;;;9.15;7.75;;;23.30;90.00;;;;;;5079689;28;20603;-80
2021/06/28 08:58:51;;;;;;;11.38;7.70;;;23.40;89.40;;;;;;5080995;28;20131;-81
2021/06/28 09:01:17;;;;;;;9.48;8.50;;;23.60;89.90;;;;;;5078027;28;20051;-79
2021/06/28 09:03:43;;;;;;;8.82;7.93;;;23.80;90.20;;;;;;5077510;28;20097;-80
2021/06/28 09:06:14;;;;;;;9.18;7.70;;;24.00;89.30;;;;;;5081680;28;20040;-80
2021/06/28 09:09:00;;;;;;;8.88;7.40;;;24.10;88.50;;;;;;5066086;28;20033;-79
2021/06/28 09:11:38;;;;;;;9.93;7.25;;;24.10;87.20;;;;;;5061190;28;20046;-80
2021/06/28 09:14:06;;;;;;;8.52;7.72;;;24.20;86.50;;;;;;5098629;28;20043;-81
2021/06/28 09:16:34;;;;;;;9.38;6.45;;;24.20;85.50;;;;;;5082695;28;20545;-80
2021/06/28 09:19:09;;;;;;;9.05;7.82;;;24.30;86.30;;;;;;5063003;28;20197;-79
2021/06/28 09:21:39;;;;;;;9.13;7.28;;;24.30;85.50;;;;;;5083804;28;20047;-80
2021/06/28 09:24:23;;;;;;;7.20;6.47;;;24.30;85.40;;;;;;5081390;28;20040;-82
2021/06/28 09:26:49;;;;;;;8.55;6.60;;;24.40;85.90;;;;;;5082714;28;20067;-80
2021/06/28 09:29:15;;;;;;;7.95;7.15;;;24.60;85.40;;;;;;5081356;28;20063;-81
2021/06/28 09:31:44;;;;;;;7.28;6.22;;;24.70;84.00;;;;;;5066478;28;20541;-82
2021/06/28 09:34:13;;;;;;;9.02;7.78;;;24.80;84.40;;;;;;5079780;28;20036;-79
2021/06/28 09:36:49;;;;;;;7.32;6.55;;;24.90;83.60;;;;;;5081823;28;20054;-81
2021/06/28 09:39:23;;;;;;;9.18;7.47;;;25.00;82.60;;;;;;5077149;28;20032;-79
2021/06/28 09:41:50;;;;;;;8.05;7.25;;;25.00;82.20;;;;;;5093586;28;20424;-78
2021/06/28 09:44:16;;;;;;;7.43;6.28;;;25.10;81.70;;;;;;5079561;28;20486;-79
2021/06/28 09:46:42;;;;;;;8.43;6.22;;;25.20;82.50;;;;;;5063871;28;20052;-79
2021/06/28 09:49:15;;;;;;;9.93;6.97;;;25.40;83.50;;;;;;5084087;28;20048;-80
2021/06/28 09:51:40;;;;;;;9.25;7.45;;;25.60;82.10;;;;;;5082718;28;20028;-81
2021/06/28 09:54:07;;;;;;;8.85;8.02;;;25.70;82.10;;;;;;5063161;28;20040;-81
2021/06/28 09:56:34;;;;;;;10.52;8.40;;;25.80;82.50;;;;;;5086004;28;20036;-81
2021/06/28 09:59:38;;;;;;;10.90;8.35;;;25.90;79.80;;;;;;5086200;28;20036;-80
2021/06/28 10:02:16;;;;;;;10.15;9.15;;;25.80;79.30;;;;;;5072827;28;20052;-79
2021/06/28 10:05:21;;;;;;;7.55;6.78;;;25.80;79.20;;;;;;5085850;28;20190;-80
2021/06/28 10:07:47;;;;;;;8.27;7.47;;;25.90;80.70;;;;;;5085264;28;20310;-81
2021/06/28 10:10:31;;;;;;;9.05;8.25;;;26.00;80.30;;;;;;5079817;28;20581;-79
2021/06/28 10:12:57;;;;;;;8.50;7.47;;;26.10;79.90;;;;;;5066754;28;20040;-79
2021/06/28 10:15:26;;;;;;;8.98;8.07;;;26.20;80.10;;;;;;5085805;28;20097;-80
2021/06/28 10:17:52;;;;;;;9.00;8.10;;;26.30;78.90;;;;;;5070520;28;20060;-82
2021/06/28 10:20:28;;;;;;;9.30;8.40;;;26.30;78.90;;;;;;5079525;28;20121;-81
2021/06/28 10:22:55;;;;;;;9.27;7.60;;;26.40;79.10;;;;;;5087853;28;20043;-80
2021/06/28 10:25:23;;;;;;;8.85;8.05;;;26.30;77.90;;;;;;5081587;28;20558;-81
2021/06/28 10:27:50;;;;;;;9.25;8.40;;;26.30;80.00;;;;;;5102893;28;20419;-81
2021/06/28 10:30:19;;;;;;;9.55;8.65;;;26.50;78.70;;;;;;5067662;28;20032;-80
2021/06/28 10:32:48;;;;;;;;;;;26.50;77.50;;;;;;5087349;28;20040;-81
2021/06/28 10:35:26;;;;;;;8.80;7.90;;;26.60;77.90;;;;;;5078967;28;19928;-80
2021/06/28 10:38:01;;;;;;;7.88;7.07;;;26.60;76.90;;;;;;5077581;28;20047;-81
2021/06/28 10:40:27;;;;;;;8.40;7.65;;;26.70;77.40;;;;;;5077010;28;20135;-81
2021/06/28 10:42:55;;;;;;;8.00;7.10;;;26.80;75.40;;;;;;5071006;28;20884;-80
2021/06/28 10:45:40;;;;;;;8.57;7.78;;;26.90;73.50;;;;;;5078519;28;20518;-82
2021/06/28 10:48:15;;;;;;;10.02;8.10;;;27.00;74.50;;;;;;5053423;28;20043;-82
2021/06/28 10:51:07;;;;;;;8.07;7.25;;;27.00;74.80;;;;;;5077596;28;20166;-81
2021/06/28 10:53:33;;;;;;;8.27;7.55;;;27.00;75.10;;;;;;5084724;28;20044;-82
2021/06/28 10:56:26;;;;;;;9.75;8.85;;;27.00;76.50;;;;;;5078179;28;20040;-79
2021/06/28 10:58:57;;;;;;;8.73;7.68;;;27.20;72.10;;;;;;5069121;28;20040;-83
2021/06/28 11:01:37;;;;;;;8.52;7.43;;;27.30;75.60;;;;;;5062143;28;20430;-80
2021/06/28 11:04:08;;;;;;;9.15;8.32;;;27.20;75.20;;;;;;5072445;28;20200;-80
2021/06/28 11:06:35;;;;;;;10.02;8.35;;;27.10;75.40;;;;;;5078551;28;20468;-81
2021/06/28 11:09:09;;;;;;;7.47;6.78;;;27.10;75.50;;;;;;5083089;28;20047;-81
2021/06/28 11:11:43;;;;;;;8.98;7.95;;;27.10;76.30;;;;;;5081150;28;20047;-81
2021/06/28 11:14:18;;;;;;;8.32;7.40;;;27.30;74.00;;;;;;5066172;28;20502;-81
2021/06/28 11:17:09;;;;;;;7.70;7.00;;;27.40;75.20;;;;;;5086347;28;20127;-82
2021/06/28 11:22:34;;;;;;;9.02;7.40;;;27.50;73.80;;;;;;5082632;28;20044;-80
2021/06/28 11:25:12;;;;;;;8.13;7.43;;;27.70;74.30;;;;;;5078283;28;20036;-82
2021/06/28 11:27:40;;;;;;;7.78;7.07;;;27.80;70.60;;;;;;5085150;28;20126;-80
2021/06/28 11:30:21;;;;;;;8.63;7.93;;;27.80;70.20;;;;;;5083442;28;20040;-82
2021/06/28 11:33:06;;;;;;;7.40;6.60;;;27.80;68.40;;;;;;5081842;28;20082;-80
2021/06/28 11:35:49;;;;;;;7.75;7.05;;;27.90;70.20;;;;;;5083156;28;20127;-84
2021/06/28 11:38:27;;;;;;;7.25;6.65;;;27.90;69.90;;;;;;5083643;28;20036;-81
2021/06/28 11:40:58;;;;;;;7.68;6.97;;;27.70;67.70;;;;;;5070566;28;20058;-81
2021/06/28 11:43:33;;;;;;;8.55;6.70;;;27.60;69.60;;;;;;5082085;28;20043;-81
2021/06/28 11:45:59;;;;;;;6.80;6.18;;;27.50;69.90;;;;;;5083616;28;20044;-82
2021/06/28 11:48:39;;;;;;;8.68;6.38;;;27.70;70.20;;;;;;5070529;28;20067;-80
2021/06/28 11:51:24;;;;;;;7.22;6.47;;;27.80;66.90;;;;;;5084602;28;20127;-81
2021/06/28 11:53:58;;;;;;;8.25;6.20;;;27.90;69.40;;;;;;5082090;28;20075;-83
2021/06/28 11:56:33;;;;;;;7.70;7.00;;;28.10;68.50;;;;;;5081832;28;20032;-81
2021/06/28 11:59:09;;;;;;;11.40;7.28;;;27.90;66.90;;;;;;5082192;28;20040;-82
2021/06/28 12:01:42;;;;;;;6.93;6.32;;;27.70;66.50;;;;;;5068852;28;20044;-83
2021/06/28 12:04:16;;;;;;;7.60;6.80;;;27.30;70.30;;;;;;5080917;28;20063;-81
2021/06/28 12:06:43;;;;;;;7.50;6.32;;;27.10;72.30;;;;;;5080228;28;20031;-83
2021/06/28 12:09:10;;;;;;;7.30;6.60;;;27.00;72.70;;;;;;5078429;28;20052;-83
2021/06/28 12:11:50;;;;;;;7.15;6.32;;;26.90;73.70;;;;;;5091444;28;20040;-82
2021/06/28 12:14:37;;;;;;;7.45;6.38;;;26.80;74.30;;;;;;5081225;28;20100;-82
2021/06/28 12:17:18;;;;;;;7.43;6.75;;;26.80;74.60;;;;;;5080266;28;20094;-80
2021/06/28 12:19:47;;;;;;;7.68;6.57;;;26.80;75.70;;;;;;5081704;28;20044;-83
2021/06/28 12:22:15;;;;;;;8.25;6.53;;;26.80;76.50;;;;;;5093923;28;20040;-82
2021/06/28 12:24:43;;;;;;;8.77;7.07;;;26.80;76.90;;;;;;5083625;28;20036;-82
2021/06/28 12:27:17;;;;;;;7.28;6.65;;;26.80;74.90;;;;;;5082181;28;20046;-82
2021/06/28 12:29:48;;;;;;;6.90;6.30;;;26.70;75.00;;;;;;5083911;28;20044;-83
2021/06/28 12:32:26;;;;;;;7.97;7.22;;;26.80;75.10;;;;;;5092221;28;20501;-83
2021/06/28 12:34:58;;;;;;;8.32;6.60;;;26.90;74.20;;;;;;5063874;28;20639;-81
2021/06/28 12:37:35;;;;;;;7.97;6.72;;;27.00;74.40;;;;;;5082488;28;20032;-82
2021/06/28 12:40:20;;;;;;;7.85;7.15;;;27.00;74.70;;;;;;5082034;28;20490;-80
2021/06/28 12:42:52;;;;;;;7.18;6.57;;;27.30;74.20;;;;;;5079403;28;20032;-80
2021/06/28 12:45:24;;;;;;;7.85;6.85;;;27.40;73.70;;;;;;5084057;28;20759;-82
2021/06/28 12:47:53;;;;;;;8.38;6.78;;;27.40;74.20;;;;;;5082915;28;20166;-80